Time;durP1;ratioP1;P1;durP2;ratioP2;P2;SDS_P1;SDS_P2;PMS_P1;PMS_P2;Temp;Humidity;BMP_temperature;BMP_pressure;BME280_temperature;BME280_humidity;BME280_pressure;Samples;Min_cycle;Max_cycle;Signal;HPM_P1;HPM_P2
2022/11/25 00:01:10;;;;;;;20.93;16.00;;;6.30;99.90;;;;;;5025820;28;20199;-55
2022/11/25 00:03:36;;;;;;;18.77;14.70;;;6.30;99.90;;;;;;5031931;28;20325;-57
2022/11/25 00:06:17;;;;;;;22.33;16.30;;;6.30;99.90;;;;;;5029581;28;20318;-58
2022/11/25 00:08:44;;;;;;;22.93;16.80;;;6.30;99.90;;;;;;5040747;28;20194;-57
2022/11/25 00:11:11;;;;;;;21.57;15.20;;;6.30;99.90;;;;;;5029571;28;20207;-56
2022/11/25 00:13:37;;;;;;;20.13;14.73;;;6.30;99.90;;;;;;5035241;28;20234;-55
2022/11/25 00:16:04;;;;;;;18.63;13.87;;;6.30;99.90;;;;;;5038077;28;20252;-56
2022/11/25 00:18:30;;;;;;;18.17;14.10;;;6.30;99.90;;;;;;5039498;28;20463;-55
2022/11/25 00:20:56;;;;;;;18.93;13.80;;;6.30;99.90;;;;;;5039521;28;20273;-56
2022/11/25 00:23:22;;;;;;;20.20;14.37;;;6.30;99.90;;;;;;5039422;28;20682;-55
2022/11/25 00:25:47;;;;;;;20.23;14.00;;;6.30;99.90;;;;;;5036506;28;20190;-56
2022/11/25 00:28:13;;;;;;;19.90;14.77;;;6.30;99.90;;;;;;5039389;28;20647;-56
2022/11/25 00:30:38;;;;;;;19.07;14.27;;;6.30;99.90;;;;;;5039367;28;20251;-56
2022/11/25 00:33:04;;;;;;;16.77;12.93;;;6.30;99.90;;;;;;5039383;28;20187;-56
2022/11/25 00:35:29;;;;;;;19.80;13.70;;;6.20;99.90;;;;;;5039195;28;20199;-56
2022/11/25 00:37:55;;;;;;;15.67;12.67;;;6.30;99.90;;;;;;5039134;28;20219;-57
2022/11/25 00:40:20;;;;;;;17.33;13.73;;;6.30;99.90;;;;;;5037572;28;20210;-57
2022/11/25 00:45:30;;;;;;;20.83;13.37;;;6.30;99.90;;;;;;5036266;28;20252;-57
2022/11/25 00:47:56;;;;;;;21.03;15.47;;;6.30;99.90;;;;;;5039081;28;20202;-57
2022/11/25 00:50:21;;;;;;;18.30;12.90;;;6.30;99.90;;;;;;5041579;28;20206;-56
2022/11/25 00:52:46;;;;;;;18.17;14.77;;;6.30;99.90;;;;;;5036807;28;20226;-57
2022/11/25 00:55:12;;;;;;;17.37;12.47;;;6.30;99.90;;;;;;5038901;28;20299;-57
2022/11/25 00:57:37;;;;;;;16.90;13.03;;;6.30;99.90;;;;;;5037629;28;20253;-56
2022/11/25 01:00:04;;;;;;;15.60;12.70;;;6.30;99.90;;;;;;5038674;28;20195;-56
2022/11/25 01:02:30;;;;;;;17.03;13.27;;;6.40;99.90;;;;;;5038633;28;20761;-56
2022/11/25 01:04:55;;;;;;;18.83;12.73;;;6.40;99.90;;;;;;5038563;28;20214;-56
2022/11/25 01:07:20;;;;;;;14.27;11.87;;;6.40;99.90;;;;;;5036958;28;20569;-56
2022/11/25 01:09:47;;;;;;;20.10;14.47;;;6.40;99.90;;;;;;5037060;28;20245;-57
2022/11/25 01:12:13;;;;;;;16.07;11.53;;;6.40;99.90;;;;;;5038520;28;20207;-57
2022/11/25 01:14:38;;;;;;;18.93;12.23;;;6.40;99.90;;;;;;5038109;28;20210;-57
2022/11/25 01:17:04;;;;;;;15.87;11.77;;;6.40;99.90;;;;;;5038448;28;20222;-57
2022/11/25 01:19:29;;;;;;;18.03;13.77;;;6.40;99.90;;;;;;5038656;28;20580;-57
2022/11/25 01:21:55;;;;;;;16.73;13.60;;;6.40;99.90;;;;;;5038658;28;20229;-56
2022/11/25 01:24:20;;;;;;;13.67;12.27;;;6.40;99.90;;;;;;5036608;28;20222;-57
2022/11/25 01:26:46;;;;;;;13.53;11.73;;;6.40;99.90;;;;;;5038236;28;20203;-57
2022/11/25 01:29:14;;;;;;;18.50;14.07;;;6.40;99.90;;;;;;5036998;28;20305;-57
2022/11/25 01:31:40;;;;;;;14.83;12.53;;;6.30;99.90;;;;;;5037814;28;20688;-57
2022/11/25 01:34:15;;;;;;;14.10;12.00;;;6.30;99.90;;;;;;5038395;28;20215;-56
2022/11/25 01:36:41;;;;;;;18.03;12.83;;;6.40;99.90;;;;;;5037884;28;20205;-57
2022/11/25 01:39:07;;;;;;;16.37;13.27;;;6.40;99.90;;;;;;5037042;28;20207;-56
2022/11/25 01:41:34;;;;;;;15.93;13.43;;;6.40;99.90;;;;;;5034091;28;20257;-57
2022/11/25 01:44:08;;;;;;;16.30;13.00;;;6.40;99.90;;;;;;5037368;28;20203;-57
2022/11/25 01:46:49;;;;;;;19.70;14.83;;;6.40;99.90;;;;;;5037650;28;20700;-56
2022/11/25 01:49:19;;;;;;;19.90;14.63;;;6.40;99.90;;;;;;5024667;28;20191;-57
2022/11/25 01:51:54;;;;;;;17.43;13.73;;;6.40;99.90;;;;;;5038042;28;20734;-57
2022/11/25 01:54:22;;;;;;;16.20;14.07;;;6.50;99.90;;;;;;5037708;28;20214;-57
2022/11/25 01:57:01;;;;;;;20.43;14.67;;;6.50;99.90;;;;;;5036658;28;20790;-57
2022/11/25 01:59:28;;;;;;;19.17;15.47;;;6.50;99.90;;;;;;5037584;28;20210;-57
2022/11/25 02:01:55;;;;;;;24.43;16.27;;;6.50;99.90;;;;;;5036558;28;20198;-57
2022/11/25 02:04:27;;;;;;;16.73;14.10;;;6.50;99.90;;;;;;5037078;28;20281;-56
2022/11/25 02:06:58;;;;;;;16.80;15.00;;;6.50;99.90;;;;;;5037585;28;20207;-56
2022/11/25 02:09:26;;;;;;;16.60;14.40;;;6.50;99.90;;;;;;5037073;28;20544;-56
2022/11/25 02:11:51;;;;;;;21.40;16.60;;;6.40;99.90;;;;;;5038045;28;20696;-56
2022/11/25 02:14:20;;;;;;;21.27;16.57;;;6.30;99.90;;;;;;5035524;28;20207;-57
2022/11/25 02:16:45;;;;;;;24.43;18.03;;;6.20;99.90;;;;;;5037433;28;20214;-56
2022/11/25 02:19:24;;;;;;;28.07;17.93;;;6.10;99.90;;;;;;5032869;28;20203;-56
2022/11/25 02:21:55;;;;;;;24.20;18.70;;;6.00;99.90;;;;;;5039483;28;20213;-56
2022/11/25 02:24:38;;;;;;;34.07;24.87;;;5.90;99.90;;;;;;5033479;28;20233;-55
2022/11/25 02:27:03;;;;;;;39.83;27.30;;;5.90;99.90;;;;;;5036205;28;20208;-57
2022/11/25 02:29:29;;;;;;;36.40;28.43;;;5.80;99.90;;;;;;5036763;28;20264;-56
2022/11/25 02:31:54;;;;;;;36.70;27.43;;;5.80;99.90;;;;;;5037223;28;20236;-56
2022/11/25 02:34:20;;;;;;;39.60;28.17;;;5.70;99.90;;;;;;5039879;28;20195;-55
2022/11/25 02:36:45;;;;;;;34.13;24.53;;;5.70;99.90;;;;;;5034076;28;20237;-55
2022/11/25 02:39:12;;;;;;;31.67;23.93;;;5.60;99.90;;;;;;5036791;28;20247;-55
2022/11/25 02:41:42;;;;;;;35.77;23.00;;;5.60;99.90;;;;;;5035376;28;20293;-56
2022/11/25 02:44:08;;;;;;;33.43;23.20;;;5.60;99.90;;;;;;5037744;28;20203;-55
2022/11/25 02:46:33;;;;;;;36.83;23.17;;;5.60;99.90;;;;;;5036868;28;20202;-55
2022/11/25 02:48:59;;;;;;;39.03;23.37;;;5.70;99.90;;;;;;5037161;28;20350;-55
2022/11/25 02:51:27;;;;;;;30.10;20.93;;;5.70;99.90;;;;;;5036731;28;20228;-56
2022/11/25 02:53:53;;;;;;;28.73;20.33;;;5.70;99.90;;;;;;5034136;28;20218;-56
2022/11/25 02:56:21;;;;;;;30.83;21.23;;;5.70;99.90;;;;;;5036475;28;20248;-56
2022/11/25 02:58:46;;;;;;;35.00;21.30;;;5.80;99.90;;;;;;5033961;28;20229;-57
2022/11/25 03:01:12;;;;;;;35.93;21.97;;;5.80;99.90;;;;;;5036116;28;20191;-56
2022/11/25 03:03:38;;;;;;;31.93;20.60;;;5.80;99.90;;;;;;5036620;28;20230;-56
2022/11/25 03:06:03;;;;;;;32.87;21.67;;;5.80;99.90;;;;;;5035190;28;20218;-57
2022/11/25 03:08:29;;;;;;;32.50;21.97;;;5.80;99.90;;;;;;5035861;28;20811;-56
2022/11/25 03:10:54;;;;;;;32.80;21.10;;;5.70;99.90;;;;;;5040188;28;20202;-56
2022/11/25 03:13:20;;;;;;;29.70;19.27;;;5.60;99.90;;;;;;5035952;28;20269;-56
2022/11/25 03:15:46;;;;;;;32.47;19.93;;;5.70;99.90;;;;;;5034312;28;20563;-56
2022/11/25 03:18:11;;;;;;;25.57;17.73;;;5.60;99.90;;;;;;5035950;28;20226;-55
2022/11/25 03:20:37;;;;;;;25.20;17.67;;;5.70;99.90;;;;;;5034499;28;20198;-58
2022/11/25 03:23:04;;;;;;;23.30;16.43;;;5.70;99.90;;;;;;5036140;28;20209;-57
2022/11/25 03:25:30;;;;;;;23.63;16.77;;;5.50;99.90;;;;;;5036242;28;20198;-57
2022/11/25 03:27:56;;;;;;;23.53;16.33;;;5.40;99.90;;;;;;5035594;28;20555;-57
2022/11/25 03:30:23;;;;;;;23.70;14.97;;;5.50;99.90;;;;;;5036229;28;20294;-57
2022/11/25 03:32:49;;;;;;;24.20;17.13;;;5.60;99.90;;;;;;5025192;28;20213;-56
2022/11/25 03:35:15;;;;;;;23.00;17.40;;;5.60;99.90;;;;;;5024852;28;20206;-55
2022/11/25 03:37:41;;;;;;;19.83;15.77;;;5.60;99.90;;;;;;5022532;28;20215;-56
2022/11/25 03:40:08;;;;;;;22.57;16.10;;;5.60;99.90;;;;;;5026362;28;20206;-55
2022/11/25 03:42:34;;;;;;;21.77;15.50;;;5.70;99.90;;;;;;5025927;28;20210;-55
2022/11/25 03:44:59;;;;;;;17.97;14.23;;;5.70;99.90;;;;;;5024713;28;20199;-56
2022/11/25 03:47:25;;;;;;;23.37;15.57;;;5.80;99.90;;;;;;5025427;28;20207;-56
2022/11/25 03:49:50;;;;;;;19.20;14.57;;;5.80;99.90;;;;;;5025998;28;20202;-56
2022/11/25 03:52:16;;;;;;;18.57;15.57;;;5.90;99.90;;;;;;5025487;28;20210;-56
2022/11/25 03:54:41;;;;;;;22.03;16.77;;;5.90;99.90;;;;;;5028089;28;20293;-73
2022/11/25 03:57:07;;;;;;;21.10;15.10;;;5.90;99.90;;;;;;5028740;28;20245;-55
2022/11/25 03:59:33;;;;;;;19.53;14.80;;;5.90;99.90;;;;;;5029840;28;20257;-57
2022/11/25 04:01:58;;;;;;;20.63;15.20;;;6.00;99.90;;;;;;5026216;28;20698;-57
2022/11/25 04:04:24;;;;;;;21.10;15.50;;;6.00;99.90;;;;;;5026357;28;20274;-58
2022/11/25 04:06:49;;;;;;;16.77;13.30;;;6.10;99.90;;;;;;5026131;28;20261;-57
2022/11/25 04:09:15;;;;;;;22.37;14.30;;;6.10;99.90;;;;;;5024048;28;20251;-56
2022/11/25 04:14:24;;;;;;;20.73;13.57;;;6.10;99.90;;;;;;5031567;28;20602;-55
2022/11/25 04:16:50;;;;;;;16.97;14.23;;;6.10;99.90;;;;;;5026119;28;20214;-57
2022/11/25 04:19:16;;;;;;;21.80;14.50;;;6.00;99.90;;;;;;5024666;28;20229;-56
2022/11/25 04:21:41;;;;;;;18.63;14.20;;;6.10;99.90;;;;;;5025664;28;20202;-56
2022/11/25 04:24:07;;;;;;;21.67;14.10;;;6.10;99.90;;;;;;5026375;28;20226;-55
2022/11/25 04:26:32;;;;;;;17.40;13.77;;;6.10;99.90;;;;;;5025084;28;20769;-56
2022/11/25 04:28:58;;;;;;;17.63;13.97;;;6.10;99.90;;;;;;5025352;28;20277;-56
2022/11/25 04:31:23;;;;;;;16.73;12.93;;;6.10;99.90;;;;;;5024476;28;20203;-58
2022/11/25 04:33:49;;;;;;;20.13;13.30;;;6.10;99.90;;;;;;5027533;28;20695;-56
2022/11/25 04:36:14;;;;;;;15.57;13.97;;;6.10;99.90;;;;;;5025926;28;20264;-55
2022/11/25 04:38:40;;;;;;;15.93;14.23;;;6.20;99.90;;;;;;5024055;28;20191;-55
2022/11/25 04:41:05;;;;;;;17.17;13.23;;;6.20;99.90;;;;;;5025916;28;20543;-57
2022/11/25 04:43:31;;;;;;;17.73;14.03;;;6.20;99.90;;;;;;5024639;28;20686;-57
2022/11/25 04:45:57;;;;;;;17.47;14.37;;;6.20;99.90;;;;;;5024698;28;20196;-57
2022/11/25 04:48:23;;;;;;;16.60;13.73;;;6.20;99.90;;;;;;5024159;28;20203;-56
2022/11/25 04:50:48;;;;;;;17.23;14.60;;;6.20;99.90;;;;;;5025308;28;20728;-56
2022/11/25 04:53:14;;;;;;;15.20;13.60;;;6.20;99.90;;;;;;5035152;28;20230;-55
2022/11/25 04:55:40;;;;;;;17.50;14.07;;;6.20;99.90;;;;;;5029189;28;20218;-57
2022/11/25 04:58:05;;;;;;;28.67;14.27;;;6.20;99.90;;;;;;5029728;28;20817;-56
2022/11/25 05:00:31;;;;;;;19.07;13.87;;;6.20;99.90;;;;;;5028437;28;20194;-56
2022/11/25 05:02:56;;;;;;;15.80;13.63;;;6.20;99.90;;;;;;5024956;28;20245;-56
2022/11/25 05:05:22;;;;;;;18.67;14.10;;;6.20;99.90;;;;;;5030121;28;20210;-56
2022/11/25 05:07:48;;;;;;;19.33;15.03;;;6.20;99.90;;;;;;5029250;28;20211;-56
2022/11/25 05:10:13;;;;;;;18.60;14.17;;;6.20;99.90;;;;;;5031562;28;20246;-56
2022/11/25 05:12:40;;;;;;;19.40;14.13;;;6.20;99.90;;;;;;5029041;28;20205;-56
2022/11/25 05:15:06;;;;;;;20.57;14.57;;;6.10;99.90;;;;;;5028309;28;20215;-56
2022/11/25 05:17:32;;;;;;;20.77;15.13;;;6.10;99.90;;;;;;5030976;28;20235;-55
2022/11/25 05:19:58;;;;;;;17.80;14.73;;;6.10;99.90;;;;;;5030998;28;20222;-55
2022/11/25 05:22:26;;;;;;;20.03;13.90;;;6.20;99.90;;;;;;5029143;28;20261;-56
2022/11/25 05:24:52;;;;;;;21.23;13.83;;;6.20;99.90;;;;;;5025728;28;20211;-55
2022/11/25 05:27:18;;;;;;;15.03;13.13;;;6.20;99.90;;;;;;5028586;28;20207;-55
2022/11/25 05:29:44;;;;;;;19.60;14.77;;;6.20;99.90;;;;;;5028036;28;20269;-57
2022/11/25 05:32:10;;;;;;;22.27;15.83;;;6.20;99.90;;;;;;5030032;28;20593;-57
2022/11/25 05:34:36;;;;;;;24.33;16.90;;;6.20;99.90;;;;;;5029124;28;20210;-56
2022/11/25 05:37:02;;;;;;;23.47;18.00;;;6.30;99.90;;;;;;5029064;28;20218;-56
2022/11/25 05:39:28;;;;;;;22.97;15.37;;;6.30;99.90;;;;;;5027969;28;20710;-56
2022/11/25 05:41:54;;;;;;;25.30;16.73;;;6.30;99.90;;;;;;5027325;28;20273;-56
2022/11/25 05:44:20;;;;;;;24.13;17.13;;;6.30;99.90;;;;;;5028555;28;20252;-56
2022/11/25 05:46:47;;;;;;;26.63;16.83;;;6.30;99.90;;;;;;5028178;28;20230;-55
2022/11/25 05:49:14;;;;;;;23.37;17.57;;;6.30;99.90;;;;;;5025822;28;20470;-56
2022/11/25 05:51:48;;;;;;;28.00;18.67;;;6.30;99.90;;;;;;5027115;28;20215;-56
2022/11/25 05:54:14;;;;;;;24.60;16.23;;;6.30;99.90;;;;;;5028763;28;20686;-56
2022/11/25 05:56:40;;;;;;;25.17;16.80;;;6.30;99.90;;;;;;5029013;28;20219;-56
2022/11/25 05:59:06;;;;;;;21.03;16.00;;;6.40;99.90;;;;;;5025902;28;20239;-56
2022/11/25 06:01:32;;;;;;;25.40;17.23;;;6.40;99.90;;;;;;5027491;28;20199;-56
2022/11/25 06:04:01;;;;;;;22.23;17.07;;;6.40;99.90;;;;;;5026459;28;20213;-56
2022/11/25 06:06:26;;;;;;;25.60;16.70;;;6.30;99.90;;;;;;5027778;28;20261;-56
2022/11/25 06:08:52;;;;;;;25.40;16.40;;;6.20;99.90;;;;;;5027984;28;20714;-55
2022/11/25 06:11:17;;;;;;;26.30;16.33;;;6.10;99.90;;;;;;5027844;28;20211;-56
2022/11/25 06:13:43;;;;;;;23.17;17.37;;;6.00;99.90;;;;;;5026948;28;21143;-56
2022/11/25 06:16:12;;;;;;;24.40;17.10;;;5.90;99.90;;;;;;5027834;28;20208;-55
2022/11/25 06:18:38;;;;;;;23.97;17.33;;;5.70;99.90;;;;;;5030289;28;21176;-55
2022/11/25 06:21:05;;;;;;;25.33;16.50;;;5.60;99.90;;;;;;5025915;28;20203;-55
2022/11/25 06:23:31;;;;;;;24.77;17.80;;;5.40;99.90;;;;;;5021593;28;20464;-55
2022/11/25 06:26:08;;;;;;;23.87;16.83;;;5.30;99.90;;;;;;5027281;28;20214;-55
2022/11/25 06:28:34;;;;;;;25.73;17.17;;;5.20;99.90;;;;;;5027457;28;20214;-56
2022/11/25 06:31:08;;;;;;;31.73;18.67;;;5.10;99.90;;;;;;5031665;28;20202;-57
2022/11/25 06:33:34;;;;;;;22.63;17.47;;;5.00;99.90;;;;;;5023903;28;20206;-56
2022/11/25 06:36:02;;;;;;;25.07;17.63;;;4.90;99.90;;;;;;5030330;28;20225;-56
2022/11/25 06:38:27;;;;;;;24.67;17.90;;;4.80;99.90;;;;;;5025848;28;20199;-56
2022/11/25 06:40:53;;;;;;;28.50;19.23;;;4.80;99.90;;;;;;5028359;28;20205;-56
2022/11/25 06:43:18;;;;;;;25.57;18.77;;;4.80;99.90;;;;;;5025929;28;20294;-56
2022/11/25 06:45:44;;;;;;;24.63;18.03;;;4.70;99.90;;;;;;5026150;28;20206;-56
2022/11/25 06:48:09;;;;;;;25.33;18.30;;;4.70;99.90;;;;;;5026451;28;20742;-56
2022/11/25 06:50:34;;;;;;;30.70;18.60;;;4.70;99.90;;;;;;5031693;28;20202;-55
2022/11/25 06:53:01;;;;;;;35.17;19.87;;;4.70;99.90;;;;;;5034572;28;20199;-55
2022/11/25 06:55:26;;;;;;;30.93;19.70;;;4.70;99.90;;;;;;5027407;28;20213;-56
2022/11/25 06:57:52;;;;;;;23.90;18.57;;;4.70;99.90;;;;;;5029502;28;20226;-56
2022/11/25 07:00:18;;;;;;;27.83;18.63;;;4.70;99.90;;;;;;5038558;28;20198;-55
2022/11/25 07:02:43;;;;;;;26.07;17.73;;;4.70;99.90;;;;;;5034017;28;20216;-55
2022/11/25 07:05:09;;;;;;;28.33;18.83;;;4.70;99.90;;;;;;5036780;28;20554;-56
2022/11/25 07:07:35;;;;;;;35.50;19.60;;;4.70;99.90;;;;;;5034316;28;20207;-56
2022/11/25 07:10:00;;;;;;;25.47;19.57;;;4.70;99.90;;;;;;5035544;28;20210;-55
2022/11/25 07:12:25;;;;;;;27.77;20.57;;;4.70;99.90;;;;;;5037031;28;20206;-56
2022/11/25 07:14:51;;;;;;;27.67;19.03;;;4.70;99.90;;;;;;5036407;28;20199;-55
2022/11/25 07:17:16;;;;;;;30.87;19.80;;;4.70;99.90;;;;;;5033480;28;20697;-55
2022/11/25 07:19:44;;;;;;;28.37;20.10;;;4.80;99.90;;;;;;5035858;28;20223;-56
2022/11/25 07:22:09;;;;;;;25.03;17.70;;;4.80;99.90;;;;;;5036847;28;20276;-55
2022/11/25 07:24:35;;;;;;;30.47;19.53;;;4.80;99.90;;;;;;5036338;28;20252;-55
2022/11/25 07:27:00;;;;;;;31.73;21.57;;;4.90;99.90;;;;;;5036829;28;20194;-55
2022/11/25 07:29:26;;;;;;;26.80;19.40;;;4.90;99.90;;;;;;5035906;28;20605;-55
2022/11/25 07:31:52;;;;;;;32.23;19.23;;;5.00;99.90;;;;;;5036741;28;20196;-55
2022/11/25 07:34:19;;;;;;;32.00;20.00;;;5.10;99.90;;;;;;5032277;28;20264;-55
2022/11/25 07:36:47;;;;;;;26.97;17.63;;;5.10;99.90;;;;;;5027894;28;20215;-55
2022/11/25 07:39:17;;;;;;;26.13;19.43;;;5.20;99.90;;;;;;5035923;28;20781;-55
2022/11/25 07:41:43;;;;;;;27.77;19.00;;;5.20;99.90;;;;;;5035905;28;20190;-55
2022/11/25 07:44:11;;;;;;;31.57;18.03;;;5.30;99.90;;;;;;5034446;28;20206;-56
2022/11/25 07:46:40;;;;;;;24.50;18.80;;;5.30;99.90;;;;;;5031669;28;20222;-55
2022/11/25 07:49:10;;;;;;;25.30;17.97;;;5.30;99.90;;;;;;5036505;28;20206;-55
2022/11/25 07:51:47;;;;;;;25.57;18.07;;;5.30;99.90;;;;;;5035980;28;20237;-56
2022/11/25 07:54:13;;;;;;;27.43;17.90;;;5.30;99.90;;;;;;5035852;28;20453;-56
2022/11/25 07:56:41;;;;;;;27.27;18.57;;;5.40;99.90;;;;;;5036102;28;20304;-55
2022/11/25 07:59:09;;;;;;;24.83;17.90;;;5.40;99.90;;;;;;5033181;28;20306;-56
2022/11/25 08:01:35;;;;;;;29.83;18.33;;;5.50;99.90;;;;;;5024247;28;20210;-56
2022/11/25 08:04:00;;;;;;;23.33;18.40;;;5.50;99.90;;;;;;5025389;28;20207;-56
2022/11/25 08:06:27;;;;;;;27.93;16.63;;;5.50;99.90;;;;;;5026812;28;20559;-56
2022/11/25 08:08:54;;;;;;;22.47;16.90;;;5.50;99.90;;;;;;5022911;28;20203;-56
2022/11/25 08:11:30;;;;;;;20.10;15.73;;;5.50;99.90;;;;;;5029905;28;20249;-55
2022/11/25 08:13:57;;;;;;;22.63;17.07;;;5.50;99.90;;;;;;5022518;28;20278;-56
2022/11/25 08:16:26;;;;;;;30.07;16.83;;;5.60;99.90;;;;;;5035809;28;20245;-55
2022/11/25 08:18:53;;;;;;;28.03;17.37;;;5.60;99.90;;;;;;5025990;28;20664;-57
2022/11/25 08:21:19;;;;;;;21.50;16.20;;;5.70;99.90;;;;;;5024849;28;20233;-56
2022/11/25 08:23:48;;;;;;;23.07;16.27;;;5.70;99.90;;;;;;5019838;28;20562;-56
2022/11/25 08:26:17;;;;;;;24.17;15.93;;;5.70;99.90;;;;;;5026270;28;20683;-55
2022/11/25 08:28:43;;;;;;;24.90;15.03;;;5.70;99.90;;;;;;5029338;28;20211;-56
2022/11/25 08:31:12;;;;;;;28.97;17.47;;;5.80;99.90;;;;;;5028255;28;20297;-56
2022/11/25 08:33:38;;;;;;;24.93;16.47;;;5.80;99.90;;;;;;5026034;28;20212;-56
2022/11/25 08:36:04;;;;;;;19.40;15.57;;;5.80;99.90;;;;;;5030028;28;20208;-55
2022/11/25 08:38:31;;;;;;;19.27;14.70;;;5.90;99.90;;;;;;5030962;28;20230;-55
2022/11/25 08:40:56;;;;;;;19.57;15.60;;;6.00;99.90;;;;;;5028443;28;20226;-55
2022/11/25 08:43:23;;;;;;;23.53;16.23;;;6.10;99.90;;;;;;5027529;28;20253;-55
2022/11/25 08:45:49;;;;;;;19.90;13.83;;;6.10;99.90;;;;;;5028428;28;20636;-55
2022/11/25 08:48:16;;;;;;;18.83;15.03;;;6.20;99.90;;;;;;5028510;28;20196;-58
2022/11/25 08:50:49;;;;;;;22.93;16.60;;;6.20;99.90;;;;;;5028953;28;20689;-56
2022/11/25 08:53:16;;;;;;;18.03;13.13;;;6.30;99.90;;;;;;5027621;28;20295;-56
2022/11/25 08:55:42;;;;;;;22.73;15.87;;;6.30;99.90;;;;;;5029722;28;20199;-55
2022/11/25 08:58:10;;;;;;;20.00;15.53;;;6.30;99.90;;;;;;5030519;28;20227;-54
2022/11/25 09:00:40;;;;;;;21.97;16.00;;;6.30;99.90;;;;;;5031083;28;20700;-55
2022/11/25 09:03:05;;;;;;;21.57;15.33;;;6.40;99.90;;;;;;5028665;28;20206;-56
2022/11/25 09:05:34;;;;;;;20.97;14.90;;;6.50;99.90;;;;;;5029024;28;20191;-55
2022/11/25 09:08:02;;;;;;;16.97;14.33;;;6.50;99.90;;;;;;5028842;28;20672;-57
2022/11/25 09:10:27;;;;;;;22.83;15.27;;;6.60;99.90;;;;;;5028810;28;20218;-56
2022/11/25 09:12:53;;;;;;;17.63;14.57;;;6.60;99.90;;;;;;5029269;28;20211;-56
2022/11/25 09:15:18;;;;;;;18.60;14.53;;;6.70;99.90;;;;;;5027727;28;20199;-56
2022/11/25 09:17:44;;;;;;;14.97;12.90;;;6.70;99.90;;;;;;5029277;28;20757;-56
2022/11/25 09:20:10;;;;;;;17.97;14.17;;;6.70;99.90;;;;;;5029776;28;20210;-55
2022/11/25 09:22:35;;;;;;;18.83;14.33;;;6.70;99.90;;;;;;5029495;28;20196;-55
2022/11/25 09:25:01;;;;;;;19.00;15.60;;;6.70;99.90;;;;;;5029451;28;20202;-55
2022/11/25 09:27:26;;;;;;;20.90;15.07;;;6.80;99.90;;;;;;5029807;28;20191;-55
2022/11/25 09:29:52;;;;;;;21.03;15.60;;;6.90;99.90;;;;;;5027336;28;20256;-55
2022/11/25 09:32:17;;;;;;;16.70;13.27;;;7.00;99.90;;;;;;5028071;28;20562;-55
2022/11/25 09:34:42;;;;;;;22.70;14.70;;;7.10;99.90;;;;;;5028324;28;20293;-55
2022/11/25 09:37:10;;;;;;;24.57;14.50;;;7.10;99.90;;;;;;5028091;28;20215;-55
2022/11/25 09:39:35;;;;;;;21.60;14.80;;;7.10;99.90;;;;;;5026948;28;20306;-55
2022/11/25 09:48:46;;;;;;;15.07;12.07;;;7.20;99.90;;;;;;5026141;28;20316;-55
2022/11/25 09:51:20;;;;;;;21.27;15.03;;;7.30;99.90;;;;;;5027922;28;20432;-55
2022/11/25 09:53:55;;;;;;;22.00;14.00;;;7.30;99.90;;;;;;5029896;28;20222;-55
2022/11/25 09:56:39;;;;;;;20.63;14.40;;;7.30;99.90;;;;;;5028015;28;20213;-54
2022/11/25 09:59:20;;;;;;;19.77;14.70;;;7.40;99.90;;;;;;5026447;28;20230;-53
2022/11/25 10:02:10;;;;;;;25.27;16.23;;;7.40;99.90;;;;;;5029374;28;20664;-54
2022/11/25 10:04:42;;;;;;;23.77;16.63;;;7.50;99.90;;;;;;5029069;28;20188;-54
2022/11/25 10:07:18;;;;;;;17.97;13.83;;;7.50;99.90;;;;;;5029819;28;20190;-54
2022/11/25 10:09:43;;;;;;;22.37;16.30;;;7.60;99.90;;;;;;5026457;28;20252;-55
2022/11/25 10:12:23;;;;;;;23.27;16.30;;;7.60;99.90;;;;;;5027559;28;20689;-54
2022/11/25 10:14:58;;;;;;;18.70;15.43;;;7.70;99.90;;;;;;5027748;28;20203;-55
2022/11/25 10:17:52;;;;;;;19.40;14.07;;;7.80;99.90;;;;;;5028900;28;20217;-55
2022/11/25 10:20:32;;;;;;;18.73;15.23;;;7.80;99.90;;;;;;5028108;28;20747;-60
2022/11/25 10:23:23;;;;;;;22.17;15.77;;;7.80;99.90;;;;;;5029008;28;20203;-55
2022/11/25 10:25:54;;;;;;;19.53;15.43;;;7.90;99.90;;;;;;5028823;28;20202;-57
2022/11/25 10:28:22;;;;;;;19.73;15.17;;;8.00;99.90;;;;;;5026376;28;20664;-58
2022/11/25 10:30:57;;;;;;;22.13;16.60;;;8.10;99.90;;;;;;5028899;28;20217;-57
2022/11/25 10:33:36;;;;;;;19.20;14.40;;;8.10;99.90;;;;;;5028554;28;20713;-55
2022/11/25 10:36:23;;;;;;;21.97;14.47;;;8.10;99.90;;;;;;5028108;28;20892;-56
2022/11/25 10:39:06;;;;;;;21.27;14.50;;;8.10;99.90;;;;;;5025871;28;20690;-57
2022/11/25 10:41:37;;;;;;;21.17;15.40;;;8.20;99.90;;;;;;5026983;28;20248;-57
2022/11/25 10:44:02;;;;;;;19.77;14.90;;;8.30;99.90;;;;;;5025011;28;20232;-58
2022/11/25 10:46:43;;;;;;;19.87;13.47;;;8.40;99.90;;;;;;5031201;28;20207;-57
2022/11/25 10:49:32;;;;;;;20.27;14.67;;;8.50;99.90;;;;;;5025376;28;20252;-56
2022/11/25 10:51:58;;;;;;;16.47;12.97;;;8.60;99.90;;;;;;5025300;28;20468;-56
2022/11/25 10:54:26;;;;;;;19.27;15.03;;;8.70;99.90;;;;;;5027984;28;20206;-57
2022/11/25 10:56:53;;;;;;;18.63;14.20;;;8.80;99.90;;;;;;5023752;28;20262;-56
2022/11/25 10:59:27;;;;;;;21.63;15.23;;;8.90;99.90;;;;;;5027570;28;20603;-54
2022/11/25 11:02:22;;;;;;;19.87;14.17;;;9.10;99.90;;;;;;5027658;28;20293;-55
2022/11/25 11:05:06;;;;;;;22.47;13.63;;;9.20;99.90;;;;;;5029155;28;20679;-54
2022/11/25 11:07:38;;;;;;;18.83;13.33;;;9.40;99.90;;;;;;5025971;28;20293;-54
2022/11/25 11:10:23;;;;;;;19.40;12.97;;;9.50;99.90;;;;;;5026961;28;20576;-54
2022/11/25 11:12:56;;;;;;;21.53;15.47;;;9.60;99.90;;;;;;5026314;28;20197;-55
2022/11/25 11:15:26;;;;;;;18.23;14.07;;;9.80;99.90;;;;;;5027370;28;20739;-56
2022/11/25 11:17:54;;;;;;;16.37;12.83;;;9.90;99.90;;;;;;5026335;28;20211;-55
2022/11/25 11:20:30;;;;;;;17.73;13.50;;;10.00;99.90;;;;;;5024855;28;20373;-55
2022/11/25 11:23:01;;;;;;;20.33;13.90;;;10.10;99.90;;;;;;5023686;28;20742;-56
2022/11/25 11:25:34;;;;;;;17.97;13.50;;;10.20;99.90;;;;;;5027705;28;20733;-56
2022/11/25 11:28:01;;;;;;;17.27;13.63;;;10.20;99.90;;;;;;5026404;28;20314;-61
2022/11/25 11:30:31;;;;;;;18.43;14.17;;;10.40;99.90;;;;;;5026201;28;21129;-79
2022/11/25 11:33:04;;;;;;;20.90;15.47;;;10.60;99.90;;;;;;5025860;28;20203;-55
2022/11/25 11:36:16;;;;;;;17.40;15.40;;;10.80;99.90;;;;;;5025841;28;20201;-55
2022/11/25 11:39:05;;;;;;;22.37;14.93;;;10.90;99.90;;;;;;5019911;28;20211;-55
2022/11/25 11:41:40;;;;;;;22.33;17.23;;;11.20;99.90;;;;;;5023064;28;20600;-55
2022/11/25 11:44:31;;;;;;;21.50;17.63;;;11.30;99.90;;;;;;5025885;28;20693;-55
2022/11/25 11:47:16;;;;;;;23.63;17.50;;;11.60;99.90;;;;;;5027555;28;20196;-55
2022/11/25 11:50:10;;;;;;;24.03;18.53;;;11.80;99.90;;;;;;5026718;28;20199;-55
2022/11/25 11:52:53;;;;;;;22.63;18.83;;;12.00;99.90;;;;;;5026591;28;20204;-56
2022/11/25 11:55:49;;;;;;;21.03;18.57;;;12.20;99.90;;;;;;5024069;28;20709;-59
2022/11/25 11:58:28;;;;;;;26.33;20.17;;;12.20;99.90;;;;;;5023773;28;20238;-55
2022/11/25 12:01:00;;;;;;;23.10;18.60;;;12.20;99.90;;;;;;5027268;28;20207;-55
2022/11/25 12:03:28;;;;;;;20.57;16.43;;;12.20;99.90;;;;;;5029911;28;20202;-55
2022/11/25 12:05:56;;;;;;;24.17;16.47;;;12.30;99.90;;;;;;5029579;28;20294;-55
2022/11/25 12:08:36;;;;;;;20.37;16.43;;;12.30;99.90;;;;;;5030393;28;20484;-55
2022/11/25 12:11:09;;;;;;;21.53;17.37;;;12.20;99.90;;;;;;5027904;28;20284;-55
2022/11/25 12:14:00;;;;;;;25.73;18.33;;;12.00;99.90;;;;;;5029892;28;20652;-54
2022/11/25 12:16:51;;;;;;;21.60;17.53;;;11.80;99.90;;;;;;5026435;28;20785;-55
2022/11/25 12:19:35;;;;;;;22.70;18.13;;;11.50;99.90;;;;;;5029765;28;20207;-55
2022/11/25 12:22:21;;;;;;;23.00;17.07;;;11.30;99.90;;;;;;5029599;28;20200;-56
2022/11/25 12:25:12;;;;;;;23.30;17.57;;;11.10;99.90;;;;;;5027554;28;20199;-55
2022/11/25 12:27:41;;;;;;;22.90;17.43;;;11.00;99.90;;;;;;5029279;28;20207;-55
2022/11/25 12:30:13;;;;;;;27.80;18.20;;;10.90;99.90;;;;;;5029275;28;20208;-56
2022/11/25 12:33:02;;;;;;;21.77;17.97;;;10.80;99.90;;;;;;5024617;28;20619;-55
2022/11/25 12:35:49;;;;;;;22.70;18.10;;;10.80;99.90;;;;;;5026446;28;20286;-55
2022/11/25 12:38:20;;;;;;;26.27;18.23;;;10.70;99.90;;;;;;5031946;28;21053;-55
2022/11/25 12:41:09;;;;;;;24.50;18.50;;;10.60;99.90;;;;;;5022925;28;20234;-55
2022/11/25 12:43:40;;;;;;;24.70;17.33;;;10.50;99.90;;;;;;5029231;28;20661;-66
2022/11/25 12:46:09;;;;;;;25.10;19.03;;;10.30;99.90;;;;;;5028878;28;20200;-57
2022/11/25 12:48:39;;;;;;;25.07;17.57;;;10.20;99.90;;;;;;5028610;28;20200;-55
2022/11/25 12:51:26;;;;;;;25.53;17.60;;;10.20;99.90;;;;;;5029321;28;20259;-54
2022/11/25 12:54:16;;;;;;;21.73;16.43;;;10.20;99.90;;;;;;5028189;28;20273;-54
2022/11/25 12:57:15;;;;;;;21.63;16.80;;;10.20;99.90;;;;;;5028306;28;20215;-54
2022/11/25 13:00:03;;;;;;;23.30;16.63;;;10.20;99.90;;;;;;5028629;28;20205;-54